Latest Weather Observations for Esperance Airport

IDW60801

Issued at 5:33 pm WST Friday 16 November 2018 (issued every 10 minutes, with the page automatically refreshed every 10 minutes)

About weather observations | Map of weather stations | Latest weather observations for WA | Other Formats
Station Details ID: 009542 Name: ESPERANCE AERO Lat: -33.68 Lon: 121.83 Height: 142.0 m
Data from the previous 72 hours. | See also: Recent months at Esperance Airport
Date/Time
WST
Temp
°C
App
Temp
°C
Dew
Point
°C
Rel
Hum
%
Delta-T
°C
Wind Press
QNH
hPa
Press
MSL
hPa
Rain since
9am
mm
Dir  Spd
km/h
Gust
km/h
Spd
kts
Gust
kts
16/05:30pm 20.5 16.8 15.1 71 3.2 ESE 28 39 15 21 1016.9 1016.5 0.0
16/05:00pm 19.3 16.2 15.6 79 2.2 ESE 26 33 14 18 1017.2 1016.8 0.0
16/04:30pm 19.2 17.0 15.9 81 2.0 SE 22 32 12 17 1018.1 1017.8 0.0
16/04:00pm 20.2 17.6 15.8 76 2.6 SE 24 35 13 19 1017.9 1017.6 0.0
16/03:30pm 21.8 19.1 16.5 72 3.2 SE 26 35 14 19 1017.8 1017.4 0.0
16/03:00pm 20.5 17.8 16.5 78 2.4 SE 26 33 14 18 1017.8 1017.4 0.0
16/02:30pm 19.9 17.5 16.3 80 2.2 SSE 24 32 13 17 1018.0 1017.7 0.0
16/02:00pm 20.9 18.6 16.7 77 2.6 SSE 24 32 13 17 1018.4 1018.1 0.0
16/01:30pm 21.4 19.1 16.6 74 2.9 SSE 24 32 13 17 1018.6 1018.3 0.0
16/01:00pm 23.5 22.2 16.8 66 4.1 SSE 19 24 10 13 1018.8 1018.5 0.0
16/12:30pm 24.5 23.5 15.7 58 5.4 SE 15 26 8 14 1018.7 1018.4 0.0
16/12:00pm 24.6 24.5 16.1 59 5.2 E 11 19 6 10 1019.4 1019.1 0.0
16/11:30am 25.4 24.4 16.5 58 5.5 E 17 22 9 12 1019.7 1019.4 0.0
16/11:00am 23.3 22.3 15.6 62 4.6 ENE 15 22 8 12 1020.1 1019.8 0.0
16/10:30am 22.7 22.2 16.0 66 4.1 E 13 20 7 11 1020.7 1020.4 0.0
16/10:00am 21.4 21.2 15.7 70 3.4 ESE 11 19 6 10 1021.4 1021.1 0.0
16/09:30am 20.6 18.8 15.4 72 3.1 ESE 19 26 10 14 1021.3 1021.0 0.0
16/09:02am 20.4 19.1 15.8 75 2.8 ESE 17 24 9 13 1021.6 1021.3 0.0
16/09:00am 20.1 18.7 15.5 75 2.7 ESE 17 24 9 13 1021.5 1021.2 0.0
16/08:30am 18.8 17.5 14.9 78 2.3 E 15 22 8 12 1021.7 1021.4 0.0
16/08:00am 18.0 16.4 15.1 83 1.7 ESE 17 20 9 11 1022.3 1022.0 0.0
16/07:30am 17.2 15.3 15.2 88 1.2 ESE 19 22 10 12 1021.9 1021.6 0.0
16/07:00am 16.9 15.0 15.1 89 1.0 ESE 19 22 10 12 1021.9 1021.6 0.0
16/06:30am 16.3 14.2 14.8 91 0.9 ESE 19 24 10 13 1021.9 1021.6 0.0
16/06:00am 16.2 13.9 14.6 90 0.9 ESE 20 28 11 15 1021.8 1021.5 0.0
16/05:30am 16.0 12.9 14.4 90 0.9 ESE 24 33 13 18 1021.3 1021.0 0.0
16/05:00am 15.9 13.1 14.3 90 0.9 ESE 22 30 12 16 1020.9 1020.6 0.0
16/04:30am 16.0 13.2 14.2 89 1.0 ESE 22 30 12 16 1020.8 1020.5 0.0
16/04:00am 16.1 12.5 14.1 88 1.1 ESE 26 32 14 17 1020.8 1020.5 0.0
16/03:30am 16.1 13.7 14.3 89 1.0 ESE 20 28 11 15 1020.5 1020.2 0.0
16/03:00am 16.1 12.5 14.3 89 1.0 SE 26 33 14 18 1020.4 1020.1 0.0
16/02:30am 16.0 13.2 14.2 89 1.0 SE 22 32 12 17 1020.2 1019.9 0.0
16/02:00am 16.0 12.3 14.0 88 1.1 SE 26 37 14 20 1020.2 1019.9 0.0
16/01:30am 16.1 12.9 14.3 89 1.0 SE 24 33 13 18 1020.3 1020.0 0.0
16/01:00am 16.2 13.1 14.6 90 0.9 SE 24 32 13 17 1020.4 1020.1 0.0
16/12:30am 16.1 12.7 14.8 92 0.8 SE 26 33 14 18 1020.4 1020.1 0.0
16/12:00am 16.1 12.7 14.8 92 0.7 SE 26 35 14 19 1020.8 1020.5 0.0
 
Date/Time
WST
Temp
°C
App
Temp
°C
Dew
Point
°C
Rel
Hum
%
Delta-T
°C
Wind Press
QNH
hPa
Press
MSL
hPa
Rain since
9am
mm
Dir  Spd
km/h
Gust
km/h
Spd
kts
Gust
kts
15/11:30pm 16.1 13.2 15.0 93 0.6 SSE 24 33 13 18 1020.9 1020.6 0.0
15/11:00pm 16.1 13.5 14.8 92 0.7 SSE 22 32 12 17 1021.3 1021.0 0.0
15/10:30pm 16.1 13.5 15.0 93 0.6 SSE 22 28 12 15 1021.3 1021.0 0.0
15/10:00pm 16.3 13.5 15.3 94 0.6 S 24 32 13 17 1021.5 1021.2 0.0
15/09:30pm 16.4 14.3 15.3 93 0.6 S 20 26 11 14 1021.7 1021.4 0.0
15/09:00pm 16.6 14.2 15.5 93 0.6 S 22 28 12 15 1021.4 1021.1 0.0
15/08:32pm 16.8 15.1 15.8 94 0.6 S 19 24 10 13 1021.3 1021.0 0.0
15/08:30pm 16.8 15.5 15.8 94 0.6 S 17 24 9 13 1021.3 1021.0 0.0
15/08:27pm 16.8 15.5 15.8 94 0.6 S 17 22 9 12 1021.4 1021.1 0.0
15/08:14pm 16.8 15.0 16.0 95 0.5 SSW 20 26 11 14 1021.1 1020.8 0.0
15/08:00pm 16.8 14.9 15.8 94 0.6 SSW 20 26 11 14 1020.9 1020.6 0.0
15/07:30pm 17.2 15.5 15.7 91 0.9 SSW 19 24 10 13 1020.4 1020.1 0.0
15/07:00pm 18.1 16.6 15.4 84 1.6 SSW 17 22 9 12 1020.1 1019.8 0.0
15/06:30pm 19.5 17.1 14.5 73 2.9 SSW 20 30 11 16 1019.4 1019.1 0.0
15/06:00pm 20.8 18.5 14.2 66 3.9 SSW 19 24 10 13 1018.8 1018.5 0.0
15/05:30pm 22.6 20.3 14.7 61 4.7 S 20 28 11 15 1018.0 1017.7 0.0
15/05:00pm 22.9 20.0 15.0 61 4.7 SSW 24 32 13 17 1017.6 1017.2 0.0
15/04:30pm 26.1 22.3 12.5 42 7.9 SSE 24 33 13 18 1017.0 1016.6 0.0
15/04:00pm 27.3 23.5 13.6 43 8.1 SSE 26 35 14 19 1016.5 1016.1 0.0
15/03:30pm 28.0 23.8 15.6 46 7.6 S 32 41 17 22 1016.1 1015.8 0.0
15/03:00pm 31.6 29.5 15.1 36 10.2 SSE 20 24 11 13 1015.4 1015.1 0.0
15/02:30pm 30.9 28.8 13.7 35 10.4 S 17 24 9 13 1015.4 1015.1 0.0
15/02:00pm 29.0 25.8 13.2 37 9.4 SSE 22 28 12 15 1015.4 1015.1 0.0
15/01:30pm 32.7 29.2 10.1 25 13.0 NNW 19 26 10 14 1015.4 1015.1 0.0
15/01:00pm 33.3 30.7 10.6 25 13.2 WNW 15 30 8 16 1015.8 1015.5 0.0
15/12:30pm 33.7 30.0 11.5 26 13.1 NNW 22 35 12 19 1016.3 1016.0 0.0
15/12:00pm 32.6 29.1 12.3 29 12.1 NNW 22 39 12 21 1017.0 1016.6 0.0
15/11:30am 32.3 27.6 12.0 29 12.0 NNW 28 39 15 21 1017.5 1017.1 0.0
15/11:00am 31.2 26.2 12.1 31 11.3 N 30 44 16 24 1017.9 1017.6 0.0
15/10:30am 29.5 24.0 12.0 34 10.3 N 32 43 17 23 1018.4 1018.1 0.0
15/10:00am 28.8 23.2 11.4 34 10.0 N 32 43 17 23 1018.8 1018.5 0.0
15/09:30am 27.3 21.4 11.3 37 9.2 N 33 44 18 24 1018.9 1018.6 0.0
15/09:00am 26.2 20.6 11.5 40 8.4 N 32 43 17 23 1019.0 1018.7 0.0
15/08:30am 24.4 19.0 12.7 48 6.8 N 33 43 18 23 1019.2 1018.9 0.0
15/08:00am 22.3 16.8 12.5 53 5.6 N 33 43 18 23 1019.4 1019.1 0.0
15/07:30am 20.5 15.3 12.7 61 4.4 N 32 43 17 23 1019.6 1019.3 0.0
15/07:00am 18.7 13.2 12.5 67 3.5 NNE 33 44 18 24 1019.6 1019.3 0.0
15/06:30am 16.8 11.1 11.7 72 2.8 NNE 33 44 18 24 1019.6 1019.3 0.0
15/06:00am 15.3 10.0 11.3 77 2.2 NNE 30 43 16 23 1019.5 1019.2 0.0
15/05:30am 14.2 9.6 11.0 81 1.7 NNE 26 39 14 21 1019.6 1019.3 0.0
15/05:00am 13.5 10.0 10.9 84 1.4 NNE 20 32 11 17 1019.5 1019.2 0.0
15/04:30am 13.4 10.1 10.8 84 1.4 NNE 19 28 10 15 1019.3 1019.0 0.0
15/04:00am 13.5 10.1 10.7 83 1.5 NE 19 28 10 15 1019.2 1018.9 0.0
15/03:30am 13.6 9.6 10.6 82 1.6 NE 22 35 12 19 1019.2 1018.9 0.0
15/03:00am 13.3 9.8 10.3 82 1.6 NE 19 28 10 15 1019.4 1019.1 0.0
15/02:30am 13.4 10.3 10.2 81 1.7 NE 17 26 9 14 1019.5 1019.2 0.0
15/02:00am 13.6 10.1 10.2 80 1.8 NE 19 30 10 16 1019.6 1019.3 0.0
15/01:30am 13.8 10.4 10.4 80 1.8 NE 19 28 10 15 1019.8 1019.5 0.0
15/01:00am 13.5 10.8 10.5 82 1.6 NE 15 22 8 12 1020.1 1019.8 0.0
15/12:30am 12.9 10.2 10.3 84 1.4 ENE 15 22 8 12 1020.3 1020.0 0.0
15/12:00am 12.8 9.6 10.0 83 1.4 ENE 17 24 9 13 1020.6 1020.3 0.0
 
Date/Time
WST
Temp
°C
App
Temp
°C
Dew
Point
°C
Rel
Hum
%
Delta-T
°C
Wind Press
QNH
hPa
Press
MSL
hPa
Rain since
9am
mm
Dir  Spd
km/h
Gust
km/h
Spd
kts
Gust
kts
14/11:30pm 13.2 9.5 10.2 82 1.6 ENE 20 32 11 17 1020.7 1020.4 0.0
14/11:00pm 13.2 9.7 10.2 82 1.6 E 19 32 10 17 1021.1 1020.8 0.0
14/10:30pm 13.3 9.3 10.3 82 1.6 E 22 32 12 17 1021.2 1020.9 0.0
14/10:00pm 13.5 9.1 10.3 81 1.7 E 24 33 13 18 1021.4 1021.1 0.0
14/09:30pm 13.9 9.1 10.3 79 1.9 E 26 37 14 20 1021.6 1021.3 0.0
14/09:00pm 13.9 9.1 10.3 79 1.9 E 26 37 14 20 1021.8 1021.5 0.0
14/08:30pm 14.1 9.0 10.7 80 1.8 E 28 39 15 21 1021.8 1021.5 0.0
14/08:00pm 14.2 9.5 10.8 80 1.8 ESE 26 39 14 21 1021.8 1021.5 0.0
14/07:30pm 14.3 8.7 10.3 77 2.1 ESE 30 39 16 21 1021.8 1021.5 0.0
14/07:00pm 14.6 9.5 10.6 77 2.1 ESE 28 35 15 19 1021.6 1021.3 0.0
14/06:30pm 15.0 9.2 10.8 76 2.2 ESE 32 41 17 22 1021.4 1021.1 0.0
14/06:00pm 16.0 10.0 10.7 71 2.8 ESE 33 44 18 24 1021.2 1020.9 0.0
14/05:30pm 17.2 11.4 10.8 66 3.5 SE 32 44 17 24 1021.2 1020.9 0.0
14/05:00pm 18.3 12.5 10.9 62 4.0 ESE 32 41 17 22 1021.0 1020.7 0.0
14/04:30pm 19.0 13.2 10.8 59 4.5 ESE 32 39 17 21 1020.8 1020.5 0.0
14/04:00pm 19.0 13.0 10.8 59 4.5 SE 33 43 18 23 1020.9 1020.6 0.0
14/03:30pm 19.6 13.8 10.9 57 4.8 ESE 32 43 17 23 1020.9 1020.6 0.0
14/03:00pm 20.5 14.5 10.9 54 5.3 ESE 33 41 18 22 1020.9 1020.6 0.0
14/02:30pm 20.9 15.3 11.5 55 5.2 SE 32 46 17 25 1020.9 1020.6 0.0
14/02:00pm 20.9 15.4 11.8 56 5.1 SE 32 41 17 22 1021.1 1020.8 0.0
14/01:30pm 20.4 14.9 11.9 58 4.8 SE 32 39 17 21 1021.5 1021.2 0.0
14/01:00pm 20.1 15.5 12.3 61 4.4 SSE 28 39 15 21 1021.7 1021.4 0.0
14/12:30pm 20.8 17.1 12.8 60 4.6 SSE 24 32 13 17 1021.9 1021.6 0.0
14/12:00pm 20.2 16.6 11.7 58 4.7 SSE 22 30 12 16 1022.1 1021.8 0.0
14/11:30am 20.6 17.9 11.8 57 4.9 SE 17 26 9 14 1022.2 1021.9 0.0
14/11:00am 20.7 19.0 11.1 54 5.3 ESE 11 19 6 10 1022.3 1022.0 0.0
14/10:30am 20.2 18.1 11.1 56 5.0 ESE 13 20 7 11 1022.6 1022.3 0.0
14/10:00am 19.1 17.7 10.9 59 4.5 ENE 9 19 5 10 1022.8 1022.5 0.0
14/09:30am 19.4 17.8 11.4 60 4.4 ENE 11 20 6 11 1023.0 1022.7 0.0
14/09:00am 18.7 16.7 11.5 63 4.0 ESE 13 20 7 11 1023.0 1022.7 0.2
14/08:30am 17.4 16.3 10.8 65 3.6 ESE 7 13 4 7 1023.1 1022.8 0.2
14/08:00am 16.9 15.5 11.0 68 3.2 E 9 13 5 7 1023.2 1022.9 0.2
14/07:30am 16.4 15.2 11.6 73 2.6 E 9 15 5 8 1023.2 1022.9 0.2
14/07:00am 16.2 13.9 10.3 68 3.1 ESE 13 17 7 9 1023.1 1022.8 0.2
14/06:30am 15.2 13.2 10.2 72 2.6 E 11 15 6 8 1022.8 1022.5 0.2
14/06:00am 14.6 13.1 10.4 76 2.2 E 9 13 5 7 1022.6 1022.3 0.2
14/05:30am 14.2 13.3 11.4 83 1.5 ESE 7 9 4 5 1022.4 1022.1 0.2
14/05:00am 14.0 13.1 11.2 83 1.5 ESE 7 9 4 5 1022.0 1021.7 0.2
14/04:30am 14.0 13.1 11.3 84 1.4 ESE 7 9 4 5 1021.7 1021.4 0.2
14/04:00am 14.0 13.1 11.5 85 1.3 ESE 7 11 4 6 1021.5 1021.2 0.2
14/03:30am 14.1 13.3 11.8 86 1.2 SE 7 11 4 6 1021.3 1021.0 0.2
14/03:00am 14.0 13.3 11.9 87 1.1 SE 7 9 4 5 1021.1 1020.8 0.2
14/02:30am 14.1 13.4 12.1 88 1.1 SE 7 11 4 6 1020.9 1020.6 0.2
14/02:00am 14.1 12.7 12.1 88 1.1 SSE 11 13 6 7 1020.9 1020.6 0.2
14/01:30am 14.4 13.3 11.9 85 1.4 SSW 9 15 5 8 1020.8 1020.5 0.2
14/01:00am 14.5 13.7 11.8 84 1.5 SSW 7 7 4 4 1020.6 1020.3 0.2
14/12:30am 14.5 15.2 12.2 86 1.3 CALM 0 0 0 0 1020.4 1020.1 0.2
14/12:00am 14.6 14.0 12.3 86 1.3 SSE 7 11 4 6 1020.7 1020.4 0.2
 
Date/Time
WST
Temp
°C
App
Temp
°C
Dew
Point
°C
Rel
Hum
%
Delta-T
°C
Wind Press
QNH
hPa
Press
MSL
hPa
Rain since
9am
mm
Dir  Spd
km/h
Gust
km/h
Spd
kts
Gust
kts
13/11:30pm 14.6 14.1 12.6 88 1.1 S 7 9 4 5 1020.7 1020.4 0.2
13/11:00pm 14.6 13.7 12.5 87 1.2 S 9 9 5 5 1020.7 1020.4 0.2
13/10:30pm 14.7 14.2 12.6 87 1.2 S 7 9 4 5 1020.8 1020.5 0.2
13/10:00pm 14.6 13.6 12.3 86 1.3 SSE 9 11 5 6 1020.9 1020.6 0.2
13/09:30pm 14.3 13.8 12.5 89 1.0 S 7 11 4 6 1020.9 1020.6 0.2
13/09:00pm 14.0 13.5 12.2 89 1.0 S 6 9 3 5 1020.8 1020.5 0.2
13/08:30pm 13.7 12.8 12.6 93 0.6 SSW 9 11 5 6 1020.7 1020.4 0.2
13/08:00pm 13.3 12.7 12.2 93 0.6 SSE 7 9 4 5 1020.1 1019.8 0.2
13/07:30pm 13.5 12.5 12.2 92 0.7 SE 9 11 5 6 1019.8 1019.5 0.2
13/07:00pm 14.1 13.0 12.0 87 1.1 SE 9 13 5 7 1019.4 1019.1 0.2
13/06:30pm 15.0 13.2 12.1 83 1.6 SSE 13 17 7 9 1019.2 1018.9 0.2
13/06:00pm 16.0 13.6 12.6 80 1.9 SSE 17 20 9 11 1019.0 1018.7 0.2

Other Formats:

Comma delimited format used in spreadsheet applications
http://www.bom.gov.au/fwo/IDW60801/IDW60801.95638.axf

JavaScript Object Notation format (JSON) in row-major order
http://www.bom.gov.au/fwo/IDW60801/IDW60801.95638.json